Main page
METAR-TAF:

METAR-TAF

Airports :

Laupheim Air Base

Laupheim, Germany

latitude: 48-13N, longitude: 009-55E, elevation: 538 m

Current weather observation

The report was made 1 hour and 11 minutes ago, at 17:20 UTC
Wind 7 kt from the Southwest
Temperature 18°C
Humidity 64%
Pressure 1012 hPa
Visibility 10 km or more

METAR: ETHL 141720Z AUTO 22007KT 9999 // ////// 18/11 Q1012 ///

Time: 20:31 (18:31 UTC)

Forecast

The report was made 8 hours and 14 minutes ago, at 10:17 UTC
Forecast valid from 14 at 11 UTC to 14 at 20 UTC
Wind 10 kt from the Southwest with gusts up to 20 kt
Visibility 10 km or more
Few clouds at a height of 1500 ft
Broken clouds at a height of 4000 ft

TAF: ETHL 141017Z 1411/1420 23010G20KT 9999 NSW FEW015 BKN040

Weather observations and forecasts of more than 4000 airports (METAR and TAF reports).

The available stations are represented by yellow and red dots on the map.

Hover mouse over dot to see the name of the station.

Then click to see weather observations and forecasts.

To change the map : click on the green buttons with a black cross to zoom in, on the green button with a dash to zoom out, or on the green arrows for adjacent maps.


METAR-TAF: